createdAt,value
2022-10-23T00:00:51.213Z,8.80
2022-10-23T00:03:39.883Z,8.70
2022-10-23T00:06:29.729Z,8.80
2022-10-23T00:09:20.834Z,8.80
2022-10-23T00:12:10.248Z,8.80
2022-10-23T00:14:58.687Z,8.90
2022-10-23T00:17:49.142Z,8.90
2022-10-23T00:20:37.568Z,9.00
2022-10-23T00:23:26.200Z,9.10
2022-10-23T00:26:15.925Z,9.10
2022-10-23T00:29:04.362Z,9.00
2022-10-23T00:31:52.863Z,9.10
2022-10-23T00:34:42.655Z,9.10
2022-10-23T00:37:31.102Z,9.10
2022-10-23T00:40:19.522Z,9.00
2022-10-23T00:43:08.883Z,9.00
2022-10-23T00:45:57.526Z,9.00
2022-10-23T00:48:45.899Z,9.00
2022-10-23T00:51:40.418Z,8.90
2022-10-23T00:54:32.624Z,8.80
2022-10-23T00:57:21.028Z,8.70
2022-10-23T01:00:12.597Z,8.60
2022-10-23T01:03:01.163Z,8.60
2022-10-23T01:05:52.831Z,8.50
2022-10-23T01:08:47.369Z,8.60
2022-10-23T01:11:41.690Z,8.60
2022-10-23T01:14:35.080Z,8.60
2022-10-23T01:17:27.209Z,8.70
2022-10-23T01:20:38.277Z,8.70
2022-10-23T01:23:49.033Z,8.70
2022-10-23T01:26:51.691Z,8.70
2022-10-23T01:29:44.723Z,8.80
2022-10-23T01:32:38.100Z,8.80
2022-10-23T01:35:30.678Z,8.80
2022-10-23T01:38:22.192Z,8.80
2022-10-23T01:41:13.191Z,8.80
2022-10-23T01:44:05.800Z,8.70
2022-10-23T01:46:56.473Z,8.70
2022-10-23T01:49:46.160Z,8.60
2022-10-23T01:52:34.703Z,8.60
2022-10-23T01:55:24.511Z,8.60
2022-10-23T01:58:13.258Z,8.70
2022-10-23T02:01:05.279Z,8.70
2022-10-23T02:03:55.779Z,8.80
2022-10-23T02:06:44.254Z,8.70
2022-10-23T02:09:33.012Z,8.70
2022-10-23T02:15:28.765Z,8.60
2022-10-23T02:18:25.326Z,8.50
2022-10-23T02:21:16.762Z,8.50
2022-10-23T02:24:08.745Z,8.50
2022-10-23T02:27:00.852Z,8.60
2022-10-23T02:29:52.756Z,8.50
2022-10-23T02:32:44.450Z,8.50
2022-10-23T02:35:33.273Z,8.50
2022-10-23T02:38:31.259Z,8.50
2022-10-23T02:41:29.343Z,8.50
2022-10-23T02:44:32.456Z,8.50
2022-10-23T02:47:34.635Z,8.60
2022-10-23T02:50:28.782Z,8.60
2022-10-23T02:53:19.851Z,8.60
2022-10-23T02:56:14.263Z,8.70
2022-10-23T02:59:07.797Z,8.60
2022-10-23T03:01:59.626Z,8.40
2022-10-23T03:04:48.455Z,8.40
2022-10-23T03:07:37.340Z,8.30
2022-10-23T03:10:25.985Z,8.30
2022-10-23T03:13:15.992Z,8.40
2022-10-23T03:16:04.392Z,8.40
2022-10-23T03:18:52.874Z,8.40
2022-10-23T03:21:41.308Z,8.40
2022-10-23T03:24:29.720Z,8.40
2022-10-23T03:27:18.268Z,8.50
2022-10-23T03:30:09.591Z,8.40
2022-10-23T03:32:57.992Z,8.30
2022-10-23T03:35:49.390Z,8.20
2022-10-23T03:38:37.807Z,8.10
2022-10-23T03:41:26.208Z,8.10
2022-10-23T03:44:14.604Z,8.10
2022-10-23T03:47:04.526Z,8.20
2022-10-23T03:49:52.918Z,8.10
2022-10-23T03:52:41.913Z,8.10
2022-10-23T03:55:30.855Z,8.10
2022-10-23T03:58:19.231Z,8.10
2022-10-23T04:01:07.739Z,8.10
2022-10-23T04:03:57.585Z,8.10
2022-10-23T04:06:46.268Z,8.10
2022-10-23T04:09:34.747Z,8.00
2022-10-23T04:12:23.254Z,7.90
2022-10-23T04:15:12.177Z,7.80
2022-10-23T04:18:00.686Z,7.80
2022-10-23T04:20:51.807Z,7.80
2022-10-23T04:23:40.172Z,7.90
2022-10-23T04:26:28.574Z,7.90
2022-10-23T04:29:17.025Z,7.90
2022-10-23T04:32:05.751Z,8.00
2022-10-23T04:34:54.156Z,8.10
2022-10-23T04:37:44.263Z,8.10
2022-10-23T04:40:32.930Z,8.10
2022-10-23T04:43:26.246Z,8.10
2022-10-23T04:46:14.719Z,8.20
2022-10-23T04:49:03.103Z,8.20
2022-10-23T04:51:51.483Z,8.20
2022-10-23T04:54:41.324Z,8.20
2022-10-23T04:57:29.918Z,8.10
2022-10-23T05:00:19.100Z,8.10
2022-10-23T05:03:07.443Z,8.10
2022-10-23T05:05:56.676Z,8.10
2022-10-23T05:08:45.038Z,8.10
2022-10-23T05:11:34.780Z,8.10
2022-10-23T05:14:23.403Z,8.10
2022-10-23T05:17:15.093Z,8.10
2022-10-23T05:20:06.315Z,8.00
2022-10-23T05:22:56.919Z,8.00
2022-10-23T05:25:45.299Z,7.90
2022-10-23T05:28:35.064Z,7.80
2022-10-23T05:31:24.598Z,7.70
2022-10-23T05:34:14.413Z,7.70
2022-10-23T05:37:03.000Z,7.70
2022-10-23T05:39:51.606Z,7.60
2022-10-23T05:42:41.711Z,7.60
2022-10-23T05:45:31.671Z,7.60
2022-10-23T05:48:29.999Z,7.60
2022-10-23T05:51:23.301Z,7.70
2022-10-23T05:54:11.715Z,7.80
2022-10-23T05:57:00.115Z,7.80
2022-10-23T05:59:48.500Z,7.70
2022-10-23T06:02:38.380Z,7.80
2022-10-23T06:05:26.878Z,7.80
2022-10-23T06:08:15.266Z,7.90
2022-10-23T06:11:08.669Z,8.00
2022-10-23T06:16:50.313Z,8.10
2022-10-23T06:19:40.063Z,8.10
2022-10-23T06:22:28.505Z,8.10
2022-10-23T06:25:17.043Z,8.10
2022-10-23T06:28:05.418Z,8.20
2022-10-23T06:30:53.807Z,8.30
2022-10-23T06:33:42.775Z,8.40
2022-10-23T06:36:32.695Z,8.50
2022-10-23T06:39:22.225Z,8.60
2022-10-23T06:42:10.764Z,8.80
2022-10-23T06:45:03.297Z,8.90
2022-10-23T06:47:54.759Z,9.10
2022-10-23T06:50:43.168Z,9.20
2022-10-23T06:53:33.087Z,9.20
2022-10-23T06:56:21.463Z,9.30
2022-10-23T06:59:09.860Z,9.40
2022-10-23T07:01:58.268Z,9.50
2022-10-23T07:04:46.651Z,9.60
2022-10-23T07:07:35.107Z,9.70
2022-10-23T07:10:25.138Z,9.70
2022-10-23T07:13:13.808Z,9.80
2022-10-23T07:16:11.144Z,9.90
2022-10-23T07:19:01.343Z,10.00
2022-10-23T07:21:49.738Z,10.10
2022-10-23T07:24:38.645Z,10.10
2022-10-23T07:27:28.642Z,10.30
2022-10-23T07:30:17.446Z,10.50
2022-10-23T07:33:05.816Z,10.60
2022-10-23T07:35:54.287Z,10.80
2022-10-23T07:38:42.943Z,11.00
2022-10-23T07:41:31.340Z,11.10
2022-10-23T07:44:23.157Z,11.20
2022-10-23T07:47:14.083Z,11.40
2022-10-23T07:50:02.458Z,11.60
2022-10-23T07:52:50.871Z,11.70
2022-10-23T07:55:39.250Z,11.90
2022-10-23T07:58:28.411Z,12.00
2022-10-23T08:01:20.475Z,12.20
2022-10-23T08:04:09.819Z,12.30
2022-10-23T08:06:58.223Z,12.40
2022-10-23T08:09:46.651Z,12.50
2022-10-23T08:12:35.028Z,12.60
2022-10-23T08:15:23.390Z,12.60
2022-10-23T08:18:13.201Z,12.60
2022-10-23T08:21:03.138Z,12.60
2022-10-23T08:23:54.077Z,12.50
2022-10-23T08:26:42.566Z,12.50
2022-10-23T08:29:30.940Z,12.50
2022-10-23T08:32:19.317Z,12.50
2022-10-23T08:35:09.971Z,12.60
2022-10-23T08:37:58.367Z,12.60
2022-10-23T08:40:47.474Z,12.70
2022-10-23T08:43:38.477Z,12.90
2022-10-23T08:46:29.956Z,13.10
2022-10-23T08:49:36.924Z,13.30
2022-10-23T08:52:29.938Z,13.40
2022-10-23T08:55:23.094Z,13.40
2022-10-23T08:58:16.177Z,13.40
2022-10-23T09:01:22.403Z,13.50
2022-10-23T09:04:12.069Z,13.60
2022-10-23T09:07:06.174Z,13.60
2022-10-23T09:10:11.886Z,13.70
2022-10-23T09:13:05.407Z,13.70
2022-10-23T09:15:56.782Z,13.70
2022-10-23T09:18:47.292Z,13.70
2022-10-23T09:21:37.292Z,13.60
2022-10-23T09:24:28.451Z,13.60
2022-10-23T09:27:19.061Z,13.60
2022-10-23T09:30:09.059Z,13.70
2022-10-23T09:32:57.607Z,13.70
2022-10-23T09:35:57.803Z,13.70
2022-10-23T09:38:50.684Z,13.80
2022-10-23T09:41:40.787Z,13.80
2022-10-23T09:44:32.050Z,14.00
2022-10-23T09:47:22.692Z,14.10
2022-10-23T09:50:21.700Z,14.10
2022-10-23T09:53:17.072Z,14.30
2022-10-23T09:56:11.816Z,14.20
2022-10-23T09:59:02.853Z,14.20
2022-10-23T10:01:54.529Z,14.30
2022-10-23T10:04:43.297Z,14.30
2022-10-23T10:07:36.022Z,14.20
2022-10-23T10:10:25.543Z,14.30
2022-10-23T10:13:31.990Z,14.40
2022-10-23T10:16:27.917Z,14.60
2022-10-23T10:19:32.264Z,14.70
2022-10-23T10:22:29.682Z,14.70
2022-10-23T10:25:22.031Z,14.80
2022-10-23T10:28:25.267Z,14.90
2022-10-23T10:31:20.124Z,15.00
2022-10-23T10:34:13.756Z,15.10
2022-10-23T10:37:07.523Z,15.10
2022-10-23T10:40:00.118Z,15.20
2022-10-23T10:43:05.227Z,15.30
2022-10-23T10:46:00.251Z,15.40
2022-10-23T10:48:52.527Z,15.50
2022-10-23T10:51:47.769Z,15.50
2022-10-23T10:54:48.653Z,15.60
2022-10-23T10:57:41.322Z,15.70
2022-10-23T11:00:31.764Z,15.70
2022-10-23T11:03:29.930Z,15.80
2022-10-23T11:06:22.060Z,15.90
2022-10-23T11:09:20.680Z,16.00
2022-10-23T11:12:17.125Z,16.10
2022-10-23T11:15:06.368Z,16.10
2022-10-23T11:17:57.365Z,16.20
2022-10-23T11:21:08.086Z,16.30
2022-10-23T11:24:24.300Z,16.30
2022-10-23T11:27:27.537Z,16.30
2022-10-23T11:30:25.301Z,16.40
2022-10-23T11:33:39.291Z,16.40
2022-10-23T11:36:51.606Z,16.50
2022-10-23T11:39:41.144Z,16.60
2022-10-23T11:42:34.070Z,16.60
2022-10-23T11:45:33.985Z,16.70
2022-10-23T11:48:24.627Z,16.70
2022-10-23T11:51:28.736Z,16.80
2022-10-23T11:54:27.179Z,16.80
2022-10-23T11:57:17.726Z,16.80
2022-10-23T12:00:23.301Z,16.80
2022-10-23T12:03:20.818Z,16.80
2022-10-23T12:06:19.820Z,16.90
2022-10-23T12:09:18.872Z,17.00
2022-10-23T12:12:18.054Z,17.10
2022-10-23T12:15:22.797Z,17.20
2022-10-23T12:18:16.255Z,17.20
2022-10-23T12:21:06.851Z,17.20
2022-10-23T12:24:39.586Z,17.20
2022-10-23T12:27:33.331Z,17.30
2022-10-23T12:30:24.708Z,17.40
2022-10-23T12:33:19.960Z,17.50
2022-10-23T12:36:22.568Z,17.60
2022-10-23T12:39:31.974Z,17.70
2022-10-23T12:42:22.754Z,17.60
2022-10-23T12:45:19.392Z,17.60
2022-10-23T12:48:20.109Z,17.60
2022-10-23T12:51:08.578Z,17.60
2022-10-23T12:53:57.132Z,17.50
2022-10-23T12:56:45.986Z,17.50
2022-10-23T12:59:38.107Z,17.40
2022-10-23T13:02:28.159Z,17.40
2022-10-23T13:05:21.776Z,17.30
2022-10-23T13:08:11.399Z,17.30
2022-10-23T13:10:59.902Z,17.20
2022-10-23T13:13:49.436Z,17.20
2022-10-23T13:16:37.865Z,17.30
2022-10-23T13:19:27.517Z,17.20
2022-10-23T13:22:19.969Z,17.30
2022-10-23T13:25:25.281Z,17.30
2022-10-23T13:28:20.231Z,17.30
2022-10-23T13:31:25.863Z,17.30
2022-10-23T13:34:19.575Z,17.30
2022-10-23T13:37:25.610Z,17.40
2022-10-23T13:40:23.455Z,17.40
2022-10-23T13:43:25.144Z,17.40
2022-10-23T13:46:18.083Z,17.40
2022-10-23T13:49:06.592Z,17.40
2022-10-23T13:51:56.484Z,17.40
2022-10-23T13:54:46.290Z,17.40
2022-10-23T13:57:34.658Z,17.40
2022-10-23T14:00:23.232Z,17.40
2022-10-23T14:03:14.702Z,17.30
2022-10-23T14:06:03.477Z,17.30
2022-10-23T14:08:51.994Z,17.20
2022-10-23T14:11:42.010Z,17.20
2022-10-23T14:14:30.471Z,17.10
2022-10-23T14:17:18.902Z,17.10
2022-10-23T14:20:08.466Z,17.10
2022-10-23T14:22:57.231Z,17.10
2022-10-23T14:25:45.649Z,17.10
2022-10-23T14:28:35.776Z,17.10
2022-10-23T14:31:24.375Z,17.10
2022-10-23T14:34:13.536Z,17.10
2022-10-23T14:37:08.891Z,17.10
2022-10-23T14:39:57.846Z,17.10
2022-10-23T14:42:46.470Z,17.10
2022-10-23T14:45:37.516Z,17.00
2022-10-23T14:48:25.943Z,17.00
2022-10-23T14:51:19.755Z,16.90
2022-10-23T14:54:09.041Z,16.90
2022-10-23T14:56:57.439Z,16.80
2022-10-23T14:59:45.805Z,16.80
2022-10-23T15:02:35.568Z,16.80
2022-10-23T15:05:23.963Z,16.70
2022-10-23T15:08:12.348Z,16.70
2022-10-23T15:11:01.459Z,16.60
2022-10-23T15:13:49.908Z,16.60
2022-10-23T15:16:41.529Z,16.50
2022-10-23T15:19:31.600Z,16.40
2022-10-23T15:22:20.636Z,16.40
2022-10-23T15:25:11.294Z,16.30
2022-10-23T15:28:01.552Z,16.20
2022-10-23T15:30:49.947Z,16.10
2022-10-23T15:33:38.932Z,16.10
2022-10-23T15:36:28.703Z,16.00
2022-10-23T15:39:19.265Z,15.80
2022-10-23T15:42:08.272Z,15.70
2022-10-23T15:44:56.659Z,15.70
2022-10-23T15:47:45.376Z,15.50
2022-10-23T15:50:34.247Z,15.50
2022-10-23T15:53:24.053Z,15.30
2022-10-23T15:56:12.431Z,15.20
2022-10-23T15:59:11.773Z,15.00
2022-10-23T16:02:00.639Z,14.90
2022-10-23T16:04:49.145Z,14.90
2022-10-23T16:07:39.482Z,14.80
2022-10-23T16:10:30.069Z,14.70
2022-10-23T16:13:18.516Z,14.60
2022-10-23T16:16:07.728Z,14.50
2022-10-23T16:18:56.178Z,14.40
2022-10-23T16:21:44.570Z,14.30
2022-10-23T16:24:33.285Z,14.20
2022-10-23T16:27:23.091Z,14.30
2022-10-23T16:30:14.241Z,14.20
2022-10-23T16:33:02.633Z,14.10
2022-10-23T16:35:51.025Z,14.00
2022-10-23T16:38:39.783Z,13.90
2022-10-23T16:41:28.252Z,13.90
2022-10-23T16:44:18.039Z,13.90
2022-10-23T16:47:07.345Z,13.90
2022-10-23T16:49:55.735Z,13.90
2022-10-23T16:52:44.923Z,13.80
2022-10-23T16:55:33.572Z,13.70
2022-10-23T16:58:25.129Z,13.70
2022-10-23T17:01:18.654Z,13.70
2022-10-23T17:04:08.227Z,13.70
2022-10-23T17:06:56.672Z,13.70
2022-10-23T17:09:46.640Z,13.70
2022-10-23T17:12:36.931Z,13.70
2022-10-23T17:15:25.391Z,13.60
2022-10-23T17:18:15.561Z,13.60
2022-10-23T17:21:04.107Z,13.60
2022-10-23T17:23:52.900Z,13.50
2022-10-23T17:26:41.867Z,13.50
2022-10-23T17:29:30.381Z,13.50
2022-10-23T17:32:19.348Z,13.40
2022-10-23T17:35:09.805Z,13.40
2022-10-23T17:38:01.319Z,13.30
2022-10-23T17:40:50.364Z,13.30
2022-10-23T17:43:38.847Z,13.30
2022-10-23T17:46:29.335Z,13.20
2022-10-23T17:49:17.877Z,13.10
2022-10-23T17:52:10.299Z,13.00
2022-10-23T17:55:01.234Z,12.80
2022-10-23T17:57:49.902Z,12.80
2022-10-23T18:00:39.328Z,12.80
2022-10-23T18:03:28.048Z,12.80
2022-10-23T18:06:18.677Z,12.70
2022-10-23T18:09:08.869Z,12.60
2022-10-23T18:11:57.486Z,12.60
2022-10-23T18:14:46.270Z,12.60
2022-10-23T18:17:36.983Z,12.60
2022-10-23T18:20:25.670Z,12.60
2022-10-23T18:23:14.357Z,12.50
2022-10-23T18:26:05.865Z,12.50
2022-10-23T18:28:57.227Z,12.50
2022-10-23T18:31:48.236Z,12.50
2022-10-23T18:34:37.077Z,12.40
2022-10-23T18:37:28.885Z,12.40
2022-10-23T18:40:23.150Z,12.40
2022-10-23T18:43:31.298Z,12.40
2022-10-23T18:46:24.604Z,12.30
2022-10-23T18:49:13.574Z,12.20
2022-10-23T18:52:02.217Z,12.10
2022-10-23T18:54:50.735Z,12.00
2022-10-23T18:57:39.782Z,12.00
2022-10-23T19:00:29.745Z,12.00
2022-10-23T19:03:18.118Z,11.90
2022-10-23T19:06:07.721Z,11.90
2022-10-23T19:08:56.208Z,11.90
2022-10-23T19:11:45.534Z,11.90
2022-10-23T19:14:33.879Z,11.90
2022-10-23T19:17:26.606Z,11.90
2022-10-23T19:20:17.008Z,12.00
2022-10-23T19:23:06.924Z,11.90
2022-10-23T19:25:55.341Z,11.90
2022-10-23T19:28:45.936Z,11.90
2022-10-23T19:31:34.402Z,11.90
2022-10-23T19:34:25.343Z,11.90
2022-10-23T19:40:09.294Z,11.80
2022-10-23T19:42:57.709Z,11.80
2022-10-23T19:45:46.116Z,11.70
2022-10-23T19:48:34.600Z,11.70
2022-10-23T19:51:24.340Z,11.60
2022-10-23T19:54:13.167Z,11.60
2022-10-23T19:57:02.470Z,11.60
2022-10-23T19:59:51.143Z,11.50
2022-10-23T20:02:39.576Z,11.50
2022-10-23T20:05:28.025Z,11.60
2022-10-23T20:08:18.134Z,11.50
2022-10-23T20:11:06.995Z,11.50
2022-10-23T20:13:56.064Z,11.50
2022-10-23T20:16:45.846Z,11.50
2022-10-23T20:19:34.901Z,11.50
2022-10-23T20:22:23.656Z,11.30
2022-10-23T20:25:13.408Z,11.30
2022-10-23T20:28:01.823Z,11.20
2022-10-23T20:30:50.199Z,11.30
2022-10-23T20:33:39.335Z,11.20
2022-10-23T20:36:30.113Z,11.20
2022-10-23T20:39:20.831Z,11.20
2022-10-23T20:42:10.611Z,11.40
2022-10-23T20:44:58.959Z,11.40
2022-10-23T20:47:47.887Z,11.40
2022-10-23T20:50:36.391Z,11.40
2022-10-23T20:53:24.771Z,11.50
2022-10-23T20:56:15.158Z,11.50
2022-10-23T20:59:07.135Z,11.60
2022-10-23T21:01:56.311Z,11.80
2022-10-23T21:04:45.167Z,11.90
2022-10-23T21:07:33.564Z,12.00
2022-10-23T21:10:21.960Z,12.10
2022-10-23T21:13:10.318Z,12.20
2022-10-23T21:16:00.162Z,12.20
2022-10-23T21:18:48.719Z,12.30
2022-10-23T21:21:37.103Z,12.30
2022-10-23T21:24:25.477Z,12.30
2022-10-23T21:27:15.149Z,12.30
2022-10-23T21:30:03.867Z,12.20
2022-10-23T21:32:53.606Z,12.20
2022-10-23T21:35:52.233Z,12.10
2022-10-23T21:38:47.776Z,12.20
2022-10-23T21:41:36.341Z,12.30
2022-10-23T21:44:24.710Z,12.40
2022-10-23T21:47:13.062Z,12.40
2022-10-23T21:50:02.850Z,12.40
2022-10-23T21:52:52.697Z,12.50
2022-10-23T21:55:41.062Z,12.50
2022-10-23T21:58:29.461Z,12.50
2022-10-23T22:01:17.977Z,12.50
2022-10-23T22:04:06.522Z,12.50
2022-10-23T22:06:56.464Z,12.40
2022-10-23T22:09:45.269Z,12.40
2022-10-23T22:12:33.887Z,12.40
2022-10-23T22:15:22.280Z,12.40
2022-10-23T22:18:10.678Z,12.40
2022-10-23T22:21:01.915Z,12.40
2022-10-23T22:23:52.042Z,12.40
2022-10-23T22:26:42.571Z,12.30
2022-10-23T22:29:30.991Z,12.40
2022-10-23T22:35:08.620Z,12.40
2022-10-23T22:37:56.973Z,12.50
2022-10-23T22:40:46.878Z,12.50
2022-10-23T22:43:35.323Z,12.60
2022-10-23T22:46:24.319Z,12.50
2022-10-23T22:49:12.715Z,12.50
2022-10-23T22:52:01.110Z,12.50
2022-10-23T22:54:49.650Z,12.50
2022-10-23T22:57:39.399Z,12.60
2022-10-23T23:00:27.767Z,12.60
2022-10-23T23:03:16.255Z,12.50
2022-10-23T23:06:05.617Z,12.50
2022-10-23T23:08:54.680Z,12.50
2022-10-23T23:11:51.642Z,12.60
2022-10-23T23:14:43.089Z,12.50
2022-10-23T23:17:31.466Z,12.50
2022-10-23T23:20:20.011Z,12.40
2022-10-23T23:23:08.838Z,12.40
2022-10-23T23:25:57.284Z,12.30
2022-10-23T23:28:45.831Z,12.20
2022-10-23T23:31:35.596Z,12.20
2022-10-23T23:34:23.994Z,12.10
2022-10-23T23:37:12.373Z,12.20
2022-10-23T23:40:00.742Z,12.20
2022-10-23T23:42:49.143Z,12.30
2022-10-23T23:45:37.514Z,12.30
2022-10-23T23:48:27.660Z,12.40
2022-10-23T23:51:16.127Z,12.30
2022-10-23T23:54:04.950Z,12.30
2022-10-23T23:56:53.307Z,12.30
2022-10-23T23:59:42.434Z,12.40
